createdAt,value
2023-05-21T00:00:07.148Z,25.00
2023-05-21T00:01:07.168Z,25.00
2023-05-21T00:02:07.165Z,0.00
2023-05-21T00:03:07.215Z,0.00
2023-05-21T00:04:07.182Z,0.00
2023-05-21T00:05:07.191Z,0.00
2023-05-21T00:06:07.245Z,0.00
2023-05-21T00:07:07.205Z,5.92
2023-05-21T00:08:07.209Z,20.94
2023-05-21T00:09:07.209Z,25.00
2023-05-21T00:10:07.231Z,25.13
2023-05-21T00:11:07.234Z,25.00
2023-05-21T00:12:07.270Z,25.00
2023-05-21T00:13:07.234Z,25.00
2023-05-21T00:14:07.236Z,25.00
2023-05-21T00:15:07.320Z,25.05
2023-05-21T00:16:07.272Z,25.00
2023-05-21T00:17:07.265Z,25.00
2023-05-21T00:18:07.294Z,25.64
2023-05-21T00:19:07.322Z,25.57
2023-05-21T00:20:07.287Z,25.01
2023-05-21T00:21:07.282Z,26.55
2023-05-21T00:22:07.299Z,25.00
2023-05-21T00:23:07.294Z,25.00
2023-05-21T00:24:07.300Z,25.86
2023-05-21T00:25:07.308Z,25.00
2023-05-21T00:26:07.305Z,27.10
2023-05-21T00:27:07.317Z,25.00
2023-05-21T00:28:07.359Z,25.00
2023-05-21T00:29:07.322Z,26.23
2023-05-21T00:30:07.344Z,25.00
2023-05-21T00:31:07.340Z,25.00
2023-05-21T00:32:07.483Z,25.00
2023-05-21T00:33:07.382Z,26.65
2023-05-21T00:34:07.368Z,26.89
2023-05-21T00:35:07.414Z,25.69
2023-05-21T00:36:07.399Z,26.62
2023-05-21T00:37:07.415Z,25.39
2023-05-21T00:38:07.453Z,26.67
2023-05-21T00:39:07.472Z,25.43
2023-05-21T00:40:07.486Z,26.96
2023-05-21T00:41:07.506Z,25.00
2023-05-21T00:42:07.872Z,29.67
2023-05-21T00:43:07.927Z,26.71
2023-05-21T00:44:07.959Z,25.00
2023-05-21T00:45:07.962Z,29.01
2023-05-21T00:46:08.040Z,27.52
2023-05-21T00:47:07.934Z,26.98
2023-05-21T00:48:08.015Z,25.14
2023-05-21T00:49:07.926Z,25.44
2023-05-21T00:50:07.939Z,26.19
2023-05-21T00:51:07.940Z,28.82
2023-05-21T00:52:07.922Z,25.41
2023-05-21T00:53:07.929Z,25.58
2023-05-21T00:54:07.924Z,25.72
2023-05-21T00:55:07.968Z,29.13
2023-05-21T00:56:07.934Z,27.74
2023-05-21T00:57:07.921Z,26.34
2023-05-21T00:58:07.925Z,26.37
2023-05-21T00:59:07.931Z,26.80
2023-05-21T01:00:07.968Z,25.48
2023-05-21T01:01:07.955Z,25.00
2023-05-21T01:02:07.966Z,26.92
2023-05-21T01:03:08.103Z,25.25
2023-05-21T01:04:07.948Z,25.00
2023-05-21T01:05:07.987Z,25.00
2023-05-21T01:06:07.986Z,25.00
2023-05-21T01:07:08.005Z,25.00
2023-05-21T01:08:08.034Z,26.32
2023-05-21T01:09:08.036Z,26.96
2023-05-21T01:10:08.063Z,27.30
2023-05-21T01:11:08.085Z,27.11
2023-05-21T01:12:08.089Z,28.44
2023-05-21T01:13:08.108Z,25.85
2023-05-21T01:14:08.133Z,26.99
2023-05-21T01:15:08.149Z,28.24
2023-05-21T01:16:08.208Z,25.95
2023-05-21T01:17:08.286Z,27.74
2023-05-21T01:18:08.209Z,25.82
2023-05-21T01:19:08.338Z,26.97
2023-05-21T01:20:09.370Z,26.56
2023-05-21T01:21:08.280Z,26.32
2023-05-21T01:22:08.295Z,27.69
2023-05-21T01:23:08.315Z,26.52
2023-05-21T01:24:08.339Z,27.25
2023-05-21T01:25:08.359Z,25.07
2023-05-21T01:26:08.375Z,26.48
2023-05-21T01:27:08.396Z,27.21
2023-05-21T01:28:08.412Z,26.58
2023-05-21T01:29:08.434Z,25.57
2023-05-21T01:30:08.453Z,28.49
2023-05-21T01:31:08.480Z,26.38
2023-05-21T01:32:08.538Z,26.55
2023-05-21T01:33:08.978Z,25.76
2023-05-21T01:34:09.093Z,28.13
2023-05-21T01:35:08.958Z,26.10
2023-05-21T01:36:08.955Z,28.39
2023-05-21T01:37:08.951Z,27.61
2023-05-21T01:38:08.946Z,26.23
2023-05-21T01:39:08.955Z,27.33
2023-05-21T01:40:08.961Z,27.11
2023-05-21T01:41:08.967Z,27.66
2023-05-21T01:42:08.953Z,26.88
2023-05-21T01:43:08.948Z,25.35
2023-05-21T01:44:08.953Z,29.49
2023-05-21T01:45:08.957Z,27.41
2023-05-21T01:46:08.979Z,28.72
2023-05-21T01:47:09.033Z,26.69
2023-05-21T01:48:09.054Z,30.45
2023-05-21T01:49:08.956Z,28.98
2023-05-21T01:50:08.959Z,27.02
2023-05-21T01:51:08.959Z,27.33
2023-05-21T01:52:08.970Z,28.41
2023-05-21T01:53:08.998Z,27.48
2023-05-21T01:54:09.019Z,26.81
2023-05-21T01:55:09.037Z,27.72
2023-05-21T01:56:09.061Z,27.19
2023-05-21T01:57:09.087Z,27.33
2023-05-21T01:58:09.130Z,26.21
2023-05-21T01:59:09.131Z,29.24
2023-05-21T02:00:09.845Z,27.59
2023-05-21T02:01:09.182Z,27.41
2023-05-21T02:02:09.301Z,27.40
2023-05-21T02:03:09.319Z,26.92
2023-05-21T02:04:09.465Z,25.40
2023-05-21T02:05:09.293Z,26.24
2023-05-21T02:06:09.295Z,25.41
2023-05-21T02:07:09.310Z,28.38
2023-05-21T02:08:09.340Z,29.41
2023-05-21T02:09:09.359Z,26.50
2023-05-21T02:10:09.382Z,28.94
2023-05-21T02:11:09.424Z,26.31
2023-05-21T02:12:09.423Z,29.13
2023-05-21T02:13:09.468Z,25.73
2023-05-21T02:14:09.476Z,25.67
2023-05-21T02:15:09.504Z,28.15
2023-05-21T02:16:09.550Z,29.29
2023-05-21T02:17:09.558Z,28.07
2023-05-21T02:18:09.616Z,27.05
2023-05-21T02:19:09.599Z,27.23
2023-05-21T02:20:09.688Z,27.83
2023-05-21T02:21:09.648Z,27.76
2023-05-21T02:22:09.670Z,26.76
2023-05-21T02:23:09.709Z,28.73
2023-05-21T02:24:09.719Z,27.07
2023-05-21T02:25:09.787Z,26.86
2023-05-21T02:26:09.786Z,27.71
2023-05-21T02:27:09.816Z,26.60
2023-05-21T02:28:09.894Z,27.31
2023-05-21T02:29:09.859Z,28.85
2023-05-21T02:30:09.891Z,27.59
2023-05-21T02:31:10.856Z,27.86
2023-05-21T02:32:09.955Z,28.08
2023-05-21T02:33:10.041Z,28.22
2023-05-21T02:34:10.038Z,29.07
2023-05-21T02:35:10.027Z,26.50
2023-05-21T02:36:10.081Z,28.70
2023-05-21T02:37:10.082Z,27.59
2023-05-21T02:38:10.141Z,27.71
2023-05-21T02:39:10.143Z,29.46
2023-05-21T02:40:10.374Z,26.88
2023-05-21T02:41:10.207Z,28.64
2023-05-21T02:42:10.247Z,28.59
2023-05-21T02:43:10.268Z,25.98
2023-05-21T02:44:10.288Z,28.43
2023-05-21T02:45:10.327Z,26.21
2023-05-21T02:46:10.420Z,27.26
2023-05-21T02:47:10.409Z,28.46
2023-05-21T02:48:10.527Z,26.40
2023-05-21T02:49:10.457Z,25.54
2023-05-21T02:50:10.481Z,26.67
2023-05-21T02:51:10.514Z,27.00
2023-05-21T02:52:10.571Z,27.90
2023-05-21T02:53:10.572Z,26.79
2023-05-21T02:54:10.602Z,28.72
2023-05-21T02:55:10.617Z,27.94
2023-05-21T02:56:10.646Z,30.11
2023-05-21T02:57:10.685Z,28.69
2023-05-21T02:58:10.705Z,27.08
2023-05-21T02:59:10.732Z,26.76
2023-05-21T03:00:10.768Z,27.62
2023-05-21T03:01:10.894Z,27.43
2023-05-21T03:02:10.849Z,26.65
2023-05-21T03:03:11.017Z,25.40
2023-05-21T03:04:10.891Z,26.99
2023-05-21T03:05:10.952Z,26.61
2023-05-21T03:06:10.944Z,25.50
2023-05-21T03:07:10.968Z,29.49
2023-05-21T03:08:11.027Z,27.59
2023-05-21T03:09:11.040Z,27.48
2023-05-21T03:10:11.094Z,28.06
2023-05-21T03:11:11.087Z,28.29
2023-05-21T03:12:11.109Z,26.50
2023-05-21T03:13:11.172Z,27.21
2023-05-21T03:14:11.172Z,27.92
2023-05-21T03:15:11.192Z,27.32
2023-05-21T03:16:11.278Z,27.29
2023-05-21T03:17:11.249Z,28.06
2023-05-21T03:18:11.304Z,29.57
2023-05-21T03:19:11.386Z,28.68
2023-05-21T03:20:11.328Z,29.71
2023-05-21T03:21:11.357Z,28.27
2023-05-21T03:22:11.407Z,28.59
2023-05-21T03:23:12.237Z,29.12
2023-05-21T03:24:11.447Z,33.39
2023-05-21T03:25:11.438Z,30.22
2023-05-21T03:26:11.412Z,28.40
2023-05-21T03:27:11.416Z,28.43
2023-05-21T03:28:11.427Z,27.96
2023-05-21T03:29:11.409Z,28.33
2023-05-21T03:30:11.406Z,27.36
2023-05-21T03:31:11.412Z,28.48
2023-05-21T03:32:11.469Z,26.74
2023-05-21T03:33:11.477Z,27.05
2023-05-21T03:34:11.408Z,27.52
2023-05-21T03:35:11.403Z,26.57
2023-05-21T03:36:11.423Z,28.10
2023-05-21T03:37:11.420Z,26.22
2023-05-21T03:38:11.434Z,28.02
2023-05-21T03:39:11.414Z,27.40
2023-05-21T03:40:11.441Z,27.44
2023-05-21T03:41:11.427Z,26.13
2023-05-21T03:42:11.415Z,27.90
2023-05-21T03:43:11.423Z,27.09
2023-05-21T03:44:11.421Z,27.34
2023-05-21T03:45:11.401Z,26.67
2023-05-21T03:46:11.443Z,29.70
2023-05-21T03:47:11.426Z,25.98
2023-05-21T03:48:11.408Z,28.39
2023-05-21T03:49:11.425Z,29.11
2023-05-21T03:50:11.415Z,27.23
2023-05-21T03:51:11.419Z,28.57
2023-05-21T03:52:11.427Z,27.32
2023-05-21T03:53:11.420Z,27.96
2023-05-21T03:54:11.432Z,28.51
2023-05-21T03:55:11.456Z,27.67
2023-05-21T03:56:11.458Z,29.76
2023-05-21T03:57:11.423Z,28.87
2023-05-21T03:58:11.417Z,29.85
2023-05-21T03:59:11.433Z,28.26
2023-05-21T04:00:11.479Z,27.95
2023-05-21T04:01:11.438Z,29.44
2023-05-21T04:02:11.490Z,28.73
2023-05-21T04:03:11.520Z,27.37
2023-05-21T04:04:11.560Z,27.16
2023-05-21T04:05:11.451Z,28.56
2023-05-21T04:06:11.456Z,27.13
2023-05-21T04:07:11.464Z,28.69
2023-05-21T04:08:11.459Z,28.01
2023-05-21T04:09:11.470Z,27.17
2023-05-21T04:10:11.473Z,28.65
2023-05-21T04:11:11.484Z,27.80
2023-05-21T04:12:11.527Z,27.70
2023-05-21T04:13:11.538Z,29.23
2023-05-21T04:14:11.606Z,26.90
2023-05-21T04:15:11.614Z,27.47
2023-05-21T04:16:11.711Z,26.57
2023-05-21T04:17:11.676Z,28.15
2023-05-21T04:18:11.704Z,26.07
2023-05-21T04:19:11.801Z,28.26
2023-05-21T04:20:11.773Z,28.05
2023-05-21T04:21:11.807Z,28.41
2023-05-21T04:22:11.847Z,27.11
2023-05-21T04:23:11.867Z,27.96
2023-05-21T04:24:11.908Z,27.70
2023-05-21T04:25:11.945Z,28.59
2023-05-21T04:26:11.981Z,28.58
2023-05-21T04:27:12.012Z,28.18
2023-05-21T04:28:12.069Z,26.75
2023-05-21T04:29:12.083Z,26.60
2023-05-21T04:30:12.123Z,25.09
2023-05-21T04:31:12.160Z,27.30
2023-05-21T04:32:12.197Z,26.43
2023-05-21T04:33:12.249Z,26.28
2023-05-21T04:34:12.268Z,26.09
2023-05-21T04:35:12.303Z,26.66
2023-05-21T04:36:12.360Z,26.33
2023-05-21T04:37:12.361Z,25.39
2023-05-21T04:38:12.408Z,28.72
2023-05-21T04:39:12.461Z,29.99
2023-05-21T04:40:12.472Z,29.44
2023-05-21T04:41:12.524Z,25.41
2023-05-21T04:42:12.561Z,25.80
2023-05-21T04:43:12.578Z,28.42
2023-05-21T04:44:12.623Z,28.46
2023-05-21T04:45:12.640Z,28.44
2023-05-21T04:46:12.748Z,28.69
2023-05-21T04:47:12.707Z,26.58
2023-05-21T04:48:12.770Z,27.08
2023-05-21T04:49:12.758Z,28.29
2023-05-21T04:50:12.802Z,25.70
2023-05-21T04:51:12.818Z,27.57
2023-05-21T04:52:12.837Z,26.80
2023-05-21T04:53:12.859Z,27.36
2023-05-21T04:54:12.877Z,26.16
2023-05-21T04:55:12.908Z,25.60
2023-05-21T04:56:12.940Z,29.03
2023-05-21T04:57:12.989Z,27.10
2023-05-21T04:58:13.007Z,27.03
2023-05-21T04:59:13.018Z,27.51
2023-05-21T05:00:13.078Z,26.21
2023-05-21T05:01:13.146Z,27.13
2023-05-21T05:02:13.136Z,28.47
2023-05-21T05:03:13.295Z,27.63
2023-05-21T05:04:13.169Z,27.77
2023-05-21T05:05:13.207Z,27.64
2023-05-21T05:06:13.242Z,26.43
2023-05-21T05:07:13.273Z,27.58
2023-05-21T05:08:15.875Z,27.74
2023-05-21T05:09:13.347Z,31.18
2023-05-21T05:10:13.334Z,31.90
2023-05-21T05:11:13.311Z,27.60
2023-05-21T05:12:13.311Z,27.43
2023-05-21T05:13:13.312Z,28.29
2023-05-21T05:14:13.315Z,25.69
2023-05-21T05:15:13.317Z,28.31
2023-05-21T05:16:13.368Z,26.49
2023-05-21T05:17:13.319Z,25.17
2023-05-21T05:18:13.333Z,27.33
2023-05-21T05:19:13.384Z,26.60
2023-05-21T05:20:13.326Z,25.80
2023-05-21T05:21:13.328Z,25.97
2023-05-21T05:22:13.660Z,27.32
2023-05-21T05:23:13.350Z,27.83
2023-05-21T05:24:13.345Z,28.22
2023-05-21T05:25:13.340Z,26.89
2023-05-21T05:26:13.340Z,25.65
2023-05-21T05:27:13.361Z,27.27
2023-05-21T05:28:13.344Z,27.80
2023-05-21T05:29:13.337Z,30.09
2023-05-21T05:30:13.344Z,26.91
2023-05-21T05:31:13.362Z,27.43
2023-05-21T05:32:13.377Z,27.84
2023-05-21T05:33:13.342Z,27.58
2023-05-21T05:34:13.328Z,28.52
2023-05-21T05:35:13.334Z,28.48
2023-05-21T05:36:13.329Z,27.83
2023-05-21T05:37:13.337Z,27.62
2023-05-21T05:38:13.331Z,29.00
2023-05-21T05:39:13.316Z,28.71
2023-05-21T05:40:13.342Z,28.04
2023-05-21T05:41:13.314Z,28.62
2023-05-21T05:42:13.309Z,27.28
2023-05-21T05:43:13.324Z,28.58
2023-05-21T05:44:13.312Z,29.01
2023-05-21T05:45:13.320Z,28.75
2023-05-21T05:46:13.364Z,25.88
2023-05-21T05:47:13.311Z,29.35
2023-05-21T05:48:13.375Z,26.86
2023-05-21T05:49:13.299Z,28.41
2023-05-21T05:50:13.313Z,30.00
2023-05-21T05:51:13.313Z,25.76
2023-05-21T05:52:13.307Z,29.23
2023-05-21T05:53:13.358Z,28.43
2023-05-21T05:54:13.335Z,28.84
2023-05-21T05:55:13.369Z,29.88
2023-05-21T05:56:13.399Z,27.76
2023-05-21T05:57:13.426Z,28.71
2023-05-21T05:58:13.461Z,27.51
2023-05-21T05:59:13.483Z,27.32
2023-05-21T06:00:13.520Z,31.17
2023-05-21T06:01:13.578Z,27.93
2023-05-21T06:02:13.589Z,27.83
2023-05-21T06:03:13.667Z,27.77
2023-05-21T06:04:13.644Z,26.37
2023-05-21T06:05:13.661Z,29.35
2023-05-21T06:06:13.811Z,27.02
2023-05-21T06:07:14.075Z,27.32
2023-05-21T06:08:14.113Z,25.22
2023-05-21T06:09:14.114Z,27.88
2023-05-21T06:10:14.117Z,29.68
2023-05-21T06:11:14.116Z,29.13
2023-05-21T06:12:15.016Z,26.08
2023-05-21T06:13:14.106Z,28.04
2023-05-21T06:14:14.112Z,26.06
2023-05-21T06:15:14.118Z,27.49
2023-05-21T06:16:14.192Z,26.30
2023-05-21T06:17:14.120Z,29.05
2023-05-21T06:18:14.149Z,26.87
2023-05-21T06:19:14.201Z,27.18
2023-05-21T06:20:14.168Z,27.37
2023-05-21T06:21:14.122Z,25.00
2023-05-21T06:22:14.216Z,27.65
2023-05-21T06:23:14.137Z,28.42
2023-05-21T06:24:14.135Z,27.24
2023-05-21T06:25:14.150Z,26.60
2023-05-21T06:26:14.162Z,26.58
2023-05-21T06:27:14.237Z,27.72
2023-05-21T06:28:14.212Z,28.36
2023-05-21T06:29:15.545Z,28.61
2023-05-21T06:30:14.256Z,29.45
2023-05-21T06:31:14.276Z,28.98
2023-05-21T06:32:14.302Z,25.76
2023-05-21T06:33:14.418Z,28.10
2023-05-21T06:34:14.338Z,26.87
2023-05-21T06:35:14.355Z,27.24
2023-05-21T06:36:14.395Z,28.49
2023-05-21T06:37:14.396Z,25.84
2023-05-21T06:38:14.418Z,28.38
2023-05-21T06:39:14.437Z,26.83
2023-05-21T06:40:14.464Z,28.49
2023-05-21T06:41:14.485Z,27.80
2023-05-21T06:42:14.492Z,27.56
2023-05-21T06:43:14.523Z,28.22
2023-05-21T06:44:14.529Z,28.37
2023-05-21T06:45:14.552Z,26.62
2023-05-21T06:46:14.603Z,27.13
2023-05-21T06:47:14.585Z,27.83
2023-05-21T06:48:14.596Z,28.53
2023-05-21T06:49:14.655Z,26.86
2023-05-21T06:50:14.634Z,25.57
2023-05-21T06:51:15.090Z,26.39
2023-05-21T06:52:14.685Z,27.19
2023-05-21T06:53:14.695Z,28.42
2023-05-21T06:54:14.714Z,28.80
2023-05-21T06:55:14.723Z,26.61
2023-05-21T06:56:15.138Z,26.11
2023-05-21T06:57:15.137Z,27.64
2023-05-21T06:58:15.138Z,28.71
2023-05-21T06:59:15.136Z,26.21
2023-05-21T07:00:15.142Z,28.50
2023-05-21T07:01:15.173Z,27.46
2023-05-21T07:02:15.176Z,26.80
2023-05-21T07:03:15.291Z,28.82
2023-05-21T07:04:15.148Z,28.03
2023-05-21T07:05:15.142Z,27.69
2023-05-21T07:06:15.162Z,29.03
2023-05-21T07:07:15.139Z,27.51
2023-05-21T07:08:15.186Z,28.66
2023-05-21T07:09:15.140Z,29.82
2023-05-21T07:10:15.152Z,26.90
2023-05-21T07:11:15.147Z,28.27
2023-05-21T07:12:15.138Z,27.78
2023-05-21T07:13:15.143Z,28.07
2023-05-21T07:14:15.145Z,27.66
2023-05-21T07:15:15.145Z,27.49
2023-05-21T07:16:15.212Z,29.16
2023-05-21T07:17:15.148Z,29.85
2023-05-21T07:18:15.236Z,29.82
2023-05-21T07:19:15.172Z,28.39
2023-05-21T07:20:15.151Z,27.76
2023-05-21T07:21:15.158Z,27.57
2023-05-21T07:22:15.188Z,28.55
2023-05-21T07:23:15.150Z,26.88
2023-05-21T07:24:15.189Z,29.17
2023-05-21T07:25:15.169Z,28.06
2023-05-21T07:26:15.197Z,28.05
2023-05-21T07:27:25.227Z,28.50
2023-05-21T07:28:15.198Z,28.81
2023-05-21T07:29:15.188Z,29.67
2023-05-21T07:30:15.183Z,29.56
2023-05-21T07:31:15.256Z,30.59
2023-05-21T07:32:15.178Z,30.22
2023-05-21T07:33:15.184Z,31.88
2023-05-21T07:34:15.182Z,32.04
2023-05-21T07:35:15.183Z,29.08
2023-05-21T07:36:15.188Z,30.41
2023-05-21T07:37:15.184Z,29.25
2023-05-21T07:38:15.173Z,29.87
2023-05-21T07:39:15.177Z,28.87
2023-05-21T07:40:15.198Z,29.72
2023-05-21T07:41:17.812Z,30.02
2023-05-21T07:42:15.172Z,30.38
2023-05-21T07:43:15.167Z,30.62
2023-05-21T07:44:15.164Z,31.54
2023-05-21T07:45:15.162Z,30.00
2023-05-21T07:46:15.212Z,29.95
2023-05-21T07:47:15.162Z,32.30
2023-05-21T07:48:15.170Z,30.79
2023-05-21T07:49:15.167Z,28.66
2023-05-21T07:50:15.178Z,29.80
2023-05-21T07:51:15.169Z,30.20
2023-05-21T07:52:15.168Z,30.98
2023-05-21T07:53:15.173Z,28.37
2023-05-21T07:54:15.174Z,27.46
2023-05-21T07:55:15.169Z,31.04
2023-05-21T07:56:15.196Z,29.76
2023-05-21T07:57:15.180Z,30.33
2023-05-21T07:58:15.184Z,30.57
2023-05-21T07:59:15.174Z,29.18
2023-05-21T08:00:15.172Z,30.05
2023-05-21T08:01:15.187Z,30.81
2023-05-21T08:02:15.175Z,30.85
2023-05-21T08:03:15.261Z,31.38
2023-05-21T08:04:15.265Z,31.50
2023-05-21T08:05:15.233Z,31.89
2023-05-21T08:06:15.173Z,31.30
2023-05-21T08:07:15.177Z,32.44
2023-05-21T08:08:15.190Z,31.02
2023-05-21T08:09:15.183Z,31.08
2023-05-21T08:10:17.088Z,31.32
2023-05-21T08:11:15.259Z,31.57
2023-05-21T08:12:15.216Z,31.71
2023-05-21T08:13:15.181Z,31.95
2023-05-21T08:14:15.181Z,31.73
2023-05-21T08:15:15.178Z,32.80
2023-05-21T08:16:15.255Z,35.69
2023-05-21T08:17:15.180Z,33.74
2023-05-21T08:18:15.987Z,33.78
2023-05-21T08:19:15.224Z,35.13
2023-05-21T08:20:15.232Z,33.94
2023-05-21T08:21:15.190Z,32.65
2023-05-21T08:22:15.186Z,31.81
2023-05-21T08:23:15.237Z,31.91
2023-05-21T08:24:15.188Z,33.34
2023-05-21T08:25:15.208Z,34.77
2023-05-21T08:26:15.201Z,32.95
2023-05-21T08:27:15.207Z,32.43
2023-05-21T08:28:15.218Z,33.38
2023-05-21T08:29:15.196Z,33.78
2023-05-21T08:30:15.186Z,33.42
2023-05-21T08:31:15.376Z,32.92
2023-05-21T08:32:15.242Z,34.55
2023-05-21T08:33:15.195Z,34.71
2023-05-21T08:34:15.197Z,34.04
2023-05-21T08:35:15.192Z,34.54
2023-05-21T08:36:15.202Z,32.93
2023-05-21T08:37:15.194Z,33.79
2023-05-21T08:38:15.195Z,34.71
2023-05-21T08:39:15.198Z,33.97
2023-05-21T08:40:15.202Z,32.53
2023-05-21T08:41:15.204Z,34.22
2023-05-21T08:42:22.609Z,33.21
2023-05-21T08:43:15.193Z,33.62
2023-05-21T08:44:15.323Z,34.32
2023-05-21T08:45:15.206Z,35.12
2023-05-21T08:46:15.268Z,36.24
2023-05-21T08:47:15.160Z,36.53
2023-05-21T08:48:15.166Z,36.23
2023-05-21T08:49:15.162Z,34.32
2023-05-21T08:50:14.792Z,34.14
2023-05-21T08:51:14.781Z,35.51
2023-05-21T08:52:14.777Z,36.37
2023-05-21T08:53:24.044Z,35.83
2023-05-21T08:54:14.755Z,36.22
2023-05-21T08:55:14.743Z,37.28
2023-05-21T08:56:16.500Z,37.87
2023-05-21T08:57:14.725Z,40.96
2023-05-21T08:58:14.717Z,36.13
2023-05-21T08:59:14.724Z,36.40
2023-05-21T09:00:14.721Z,36.40
2023-05-21T09:01:14.735Z,37.14
2023-05-21T09:02:14.689Z,36.44
2023-05-21T09:03:14.723Z,37.39
2023-05-21T09:04:20.719Z,37.59
2023-05-21T09:05:14.641Z,37.98
2023-05-21T09:06:14.620Z,38.57
2023-05-21T09:07:14.610Z,39.23
2023-05-21T09:08:14.602Z,39.32
2023-05-21T09:09:14.591Z,39.90
2023-05-21T09:10:14.577Z,39.43
2023-05-21T09:11:14.564Z,39.87
2023-05-21T09:12:14.552Z,38.60
2023-05-21T09:13:14.544Z,38.28
2023-05-21T09:14:14.522Z,38.98
2023-05-21T09:15:14.534Z,38.30
2023-05-21T09:16:14.589Z,39.01
2023-05-21T09:17:14.500Z,38.54
2023-05-21T09:18:14.551Z,38.93
2023-05-21T09:19:14.545Z,38.01
2023-05-21T09:20:14.559Z,39.33
2023-05-21T09:21:14.479Z,39.22
2023-05-21T09:22:14.467Z,40.33
2023-05-21T09:23:14.462Z,38.94
2023-05-21T09:24:14.446Z,38.04
2023-05-21T09:25:14.451Z,38.47
2023-05-21T09:26:14.434Z,39.77
2023-05-21T09:27:14.421Z,38.86
2023-05-21T09:28:14.417Z,40.45
2023-05-21T09:29:14.410Z,39.73
2023-05-21T09:30:14.394Z,39.26
2023-05-21T09:31:14.455Z,38.56
2023-05-21T09:32:14.419Z,41.29
2023-05-21T09:33:14.425Z,40.18
2023-05-21T09:34:14.394Z,39.82
2023-05-21T09:35:14.367Z,40.16
2023-05-21T09:36:14.351Z,40.91
2023-05-21T09:37:26.522Z,40.66
2023-05-21T09:38:14.329Z,41.03
2023-05-21T09:39:14.321Z,41.87
2023-05-21T09:40:14.306Z,41.72
2023-05-21T09:41:14.978Z,42.12
2023-05-21T09:42:14.306Z,40.89
2023-05-21T09:43:14.297Z,41.60
2023-05-21T09:44:14.305Z,42.37
2023-05-21T09:45:14.294Z,43.04
2023-05-21T09:46:14.359Z,44.00
2023-05-21T09:47:14.280Z,43.34
2023-05-21T09:48:14.308Z,42.55
2023-05-21T09:49:14.272Z,43.92
2023-05-21T09:50:14.275Z,44.32
2023-05-21T09:51:14.270Z,41.20
2023-05-21T09:52:14.248Z,43.40
2023-05-21T09:53:14.239Z,42.31
2023-05-21T09:54:14.254Z,41.95
2023-05-21T09:55:14.238Z,41.53
2023-05-21T09:56:14.245Z,41.32
2023-05-21T09:57:14.246Z,43.64
2023-05-21T09:58:14.240Z,43.34
2023-05-21T09:59:14.242Z,41.76
2023-05-21T10:00:14.243Z,42.58
2023-05-21T10:01:15.263Z,43.17
2023-05-21T10:02:14.260Z,44.64
2023-05-21T10:03:14.329Z,44.62
2023-05-21T10:04:14.320Z,42.47
2023-05-21T10:05:14.248Z,44.83
2023-05-21T10:06:14.251Z,44.85
2023-05-21T10:07:14.243Z,43.96
2023-05-21T10:08:14.250Z,44.77
2023-05-21T10:09:14.243Z,44.64
2023-05-21T10:10:14.249Z,43.63
2023-05-21T10:11:14.249Z,45.16
2023-05-21T10:12:14.296Z,46.09
2023-05-21T10:13:14.353Z,43.91
2023-05-21T10:14:14.413Z,45.29
2023-05-21T10:15:14.501Z,45.62
2023-05-21T10:16:14.572Z,46.20
2023-05-21T10:17:14.571Z,45.74
2023-05-21T10:18:14.624Z,46.12
2023-05-21T10:19:15.569Z,47.58
2023-05-21T10:20:14.755Z,44.98
2023-05-21T10:21:14.791Z,45.20
2023-05-21T10:22:15.216Z,46.01
2023-05-21T10:23:15.250Z,47.23
2023-05-21T10:24:14.911Z,45.92
2023-05-21T10:25:14.986Z,46.10
2023-05-21T10:26:15.014Z,46.14
2023-05-21T10:27:15.067Z,46.16
2023-05-21T10:28:15.121Z,45.87
2023-05-21T10:29:16.270Z,46.21
2023-05-21T10:30:15.168Z,48.23
2023-05-21T10:31:15.146Z,48.73
2023-05-21T10:32:15.174Z,47.17
2023-05-21T10:33:15.292Z,46.10
2023-05-21T10:34:15.158Z,47.39
2023-05-21T10:35:15.122Z,47.11
2023-05-21T10:36:15.336Z,48.75
2023-05-21T10:37:15.106Z,47.45
2023-05-21T10:38:15.127Z,49.45
2023-05-21T10:39:15.092Z,46.91
2023-05-21T10:40:15.086Z,46.80
2023-05-21T10:41:15.562Z,46.63
2023-05-21T10:42:15.080Z,47.88
2023-05-21T10:43:16.049Z,48.45
2023-05-21T10:44:15.065Z,48.69
2023-05-21T10:45:15.052Z,47.36
2023-05-21T10:46:15.124Z,48.01
2023-05-21T10:47:15.034Z,48.32
2023-05-21T10:48:15.069Z,48.02
2023-05-21T10:49:15.041Z,47.66
2023-05-21T10:50:15.023Z,47.71
2023-05-21T10:51:15.074Z,48.68
2023-05-21T10:52:15.151Z,47.02
2023-05-21T10:53:15.201Z,46.85
2023-05-21T10:54:15.222Z,45.94
2023-05-21T10:55:15.266Z,48.11
2023-05-21T10:56:15.321Z,48.17
2023-05-21T10:57:15.360Z,48.19
2023-05-21T10:58:15.415Z,49.60
2023-05-21T10:59:15.450Z,48.33
2023-05-21T11:00:15.497Z,47.88
2023-05-21T11:01:15.644Z,49.16
2023-05-21T11:02:15.653Z,47.52
2023-05-21T11:03:15.752Z,49.09
2023-05-21T11:04:15.720Z,48.33
2023-05-21T11:05:15.749Z,48.88
2023-05-21T11:06:15.748Z,50.54
2023-05-21T11:07:15.787Z,50.76
2023-05-21T11:08:15.862Z,47.83
2023-05-21T11:09:15.885Z,49.96
2023-05-21T11:10:15.924Z,48.62
2023-05-21T11:11:15.982Z,50.76
2023-05-21T11:12:16.001Z,47.49
2023-05-21T11:13:16.039Z,48.37
2023-05-21T11:14:16.101Z,49.54
2023-05-21T11:15:16.138Z,49.41
2023-05-21T11:16:16.193Z,50.76
2023-05-21T11:17:16.407Z,50.99
2023-05-21T11:18:16.295Z,49.27
2023-05-21T11:19:16.427Z,50.33
2023-05-21T11:20:16.389Z,50.18
2023-05-21T11:21:16.439Z,52.47
2023-05-21T11:22:16.486Z,52.92
2023-05-21T11:23:16.534Z,51.50
2023-05-21T11:24:16.602Z,49.94
2023-05-21T11:25:16.616Z,51.13
2023-05-21T11:26:16.666Z,50.53
2023-05-21T11:27:16.705Z,49.45
2023-05-21T11:28:16.756Z,50.95
2023-05-21T11:29:16.802Z,48.15
2023-05-21T11:30:16.873Z,47.70
2023-05-21T11:31:16.927Z,49.40
2023-05-21T11:32:16.921Z,51.28
2023-05-21T11:33:16.985Z,48.45
2023-05-21T11:34:17.010Z,51.85
2023-05-21T11:35:17.051Z,47.30
2023-05-21T11:36:17.092Z,51.11
2023-05-21T11:37:17.136Z,47.21
2023-05-21T11:38:17.177Z,50.66
2023-05-21T11:39:17.220Z,51.89
2023-05-21T11:40:17.307Z,50.30
2023-05-21T11:41:17.322Z,51.57
2023-05-21T11:42:17.360Z,53.07
2023-05-21T11:43:17.389Z,50.55
2023-05-21T11:44:17.433Z,50.28
2023-05-21T11:45:17.479Z,48.79
2023-05-21T11:46:17.535Z,51.84
2023-05-21T11:47:17.560Z,52.30
2023-05-21T11:48:17.597Z,51.54
2023-05-21T11:49:17.636Z,50.80
2023-05-21T11:50:17.700Z,51.61
2023-05-21T11:51:17.702Z,48.87
2023-05-21T11:52:17.729Z,52.67
2023-05-21T11:53:17.757Z,50.07
2023-05-21T11:54:17.789Z,48.63
2023-05-21T11:55:17.834Z,49.31
2023-05-21T11:56:17.896Z,52.00
2023-05-21T11:57:17.907Z,48.94
2023-05-21T11:58:17.940Z,51.92
2023-05-21T11:59:18.974Z,50.83
2023-05-21T12:00:18.023Z,47.68
2023-05-21T12:01:18.059Z,50.61
2023-05-21T12:02:18.112Z,52.68
2023-05-21T12:03:18.326Z,49.84
2023-05-21T12:04:18.177Z,51.22
2023-05-21T12:05:18.241Z,52.97
2023-05-21T12:06:18.349Z,48.20
2023-05-21T12:07:18.288Z,53.22
2023-05-21T12:08:18.314Z,50.97
2023-05-21T12:09:18.353Z,51.73
2023-05-21T12:10:18.401Z,49.20
2023-05-21T12:11:18.432Z,52.90
2023-05-21T12:12:18.564Z,47.46
2023-05-21T12:13:18.496Z,52.13
2023-05-21T12:14:19.124Z,50.09
2023-05-21T12:15:18.569Z,52.65
2023-05-21T12:16:18.631Z,52.35
2023-05-21T12:17:18.623Z,50.26
2023-05-21T12:18:18.660Z,51.72
2023-05-21T12:19:18.756Z,53.28
2023-05-21T12:20:18.738Z,52.91
2023-05-21T12:21:18.768Z,50.91
2023-05-21T12:22:18.812Z,52.50
2023-05-21T12:23:18.832Z,50.18
2023-05-21T12:24:18.868Z,52.09
2023-05-21T12:25:18.918Z,53.87
2023-05-21T12:26:18.964Z,51.16
2023-05-21T12:27:18.974Z,52.06
2023-05-21T12:28:19.039Z,53.26
2023-05-21T12:29:19.039Z,52.37
2023-05-21T12:30:19.067Z,52.13
2023-05-21T12:31:19.131Z,52.61
2023-05-21T12:32:19.164Z,48.96
2023-05-21T12:33:19.160Z,51.86
2023-05-21T12:34:19.175Z,51.07
2023-05-21T12:35:19.227Z,50.89
2023-05-21T12:36:19.244Z,52.47
2023-05-21T12:37:19.662Z,51.25
2023-05-21T12:38:19.676Z,49.34
2023-05-21T12:39:19.660Z,52.89
2023-05-21T12:40:19.678Z,52.74
2023-05-21T12:41:19.655Z,50.39
2023-05-21T12:42:19.655Z,50.55
2023-05-21T12:43:19.656Z,53.62
2023-05-21T12:44:19.676Z,53.91
2023-05-21T12:45:19.646Z,51.04
2023-05-21T12:46:19.690Z,52.15
2023-05-21T12:47:19.651Z,55.83
2023-05-21T12:48:19.652Z,54.54
2023-05-21T12:49:19.653Z,53.20
2023-05-21T12:50:19.712Z,52.65
2023-05-21T12:51:19.687Z,52.55
2023-05-21T12:52:19.731Z,52.83